Airfield :
LOGIN :

Register | Disclaimer

   EN    FR    IT 

 










Legend :    VFR   Marginal VFR   IFR   Intensive IFR   Very Intensive IFR
Visi :
Ceiling :
>= 8 km
>= 3000ft
5 to 8 km
1000 to 3000 ft
1500m to 5 km
500 to 1000 ft
800 to 1500m
200 to 500 ft
< 800m
< 200 ft
Symbols :   Thunderstorms  Fog  Heavy snow  Heavy precipitations  Wind > 20 kt
SIGMETs :     Misc.  Thunderstorms  Icing  Turbulence  Mountain Waves  Volcanic Ashes






- Airport Elevation : 458 ft


LFSI - St-Dizier

CURRENT METAR :
  • 200130Z AUTO 32006KT 9999 BKN026 BKN041 OVC056 04/02 Q1019

EXPIRED METARs :
  • 200100Z AUTO 30005KT 9999 OVC028 04/02 Q1019
  • 200030Z AUTO 31004KT 9999 BKN027 04/02 Q1019
  • 200000Z AUTO 30006KT 9999 FEW028 04/02 Q1019
  • 192330Z AUTO 32004KT 9999 BKN029 04/02 Q1018
  • 192300Z AUTO 31005KT CAVOK 05/03 Q1018
  • 192230Z AUTO 31007KT 9999 SCT043 BKN049 05/03 Q1018
  • 192200Z AUTO 33011KT CAVOK 06/03 Q1018
  • 192130Z AUTO 32011KT 9999 FEW034 BKN052 07/04 Q1017
  • 192100Z AUTO 31012KT 9999 FEW022 SCT030 BKN042 07/05 Q1017

TAF TAF LFSI
Valid from the 19 at 09:00 until the 20 at 09:00 UTC


190800Z 1909/2009 23015KT 9999 FEW030 BKN050
TEMPO 1913/1915 27015G25KT
TEMPO 1915/1918 29015G25KT 2000 SHRA BKN010TCU BKN015
BECMG 1918/1919 31010KT
BECMG 2000/2002 BKN010
TEMPO 2003/2007 2000 DZRA BKN007



MET'MAP, your aeronautical weather chart ! - Copyright ORBIFLY December 2007 - Disclaimer

ORBIFLY MET'MAP TEAM :

Programming & Development : Alexandra Zaïnal
Original concept : Baudouin d'Aumeries
Technical & hardware support : Manuel Goepfert
Assistance : Marc-Olivier Méhu




SOURCES & CREDITS :

   NOAA